createdAt,value
2023-08-28T00:00:00.525Z,14.00
2023-08-28T00:02:28.535Z,11.90
2023-08-28T00:04:56.536Z,13.30
2023-08-28T00:07:24.509Z,14.30
2023-08-28T00:09:52.700Z,12.80
2023-08-28T00:12:20.824Z,13.10
2023-08-28T00:14:48.991Z,10.50
2023-08-28T00:17:19.183Z,11.50
2023-08-28T00:19:47.191Z,11.30
2023-08-28T00:22:15.173Z,12.20
2023-08-28T00:24:43.114Z,11.00
2023-08-28T00:27:10.948Z,11.60
2023-08-28T00:29:38.828Z,12.70
2023-08-28T00:32:06.971Z,11.90
2023-08-28T00:34:34.964Z,12.80
2023-08-28T00:37:02.899Z,11.70
2023-08-28T00:39:30.851Z,10.60
2023-08-28T00:41:58.756Z,12.00
2023-08-28T00:44:26.728Z,11.90
2023-08-28T00:46:54.779Z,11.00
2023-08-28T00:49:23.006Z,12.40
2023-08-28T00:51:51.071Z,13.10
2023-08-28T00:54:19.095Z,14.00
2023-08-28T00:56:49.083Z,11.10
2023-08-28T00:59:17.811Z,11.00
2023-08-28T01:01:46.156Z,14.10
2023-08-28T01:04:14.280Z,12.20
2023-08-28T01:07:08.719Z,12.10
2023-08-28T01:09:51.773Z,11.90
2023-08-28T01:12:45.099Z,11.90
2023-08-28T01:15:22.765Z,10.00
2023-08-28T01:18:01.905Z,12.20
2023-08-28T01:20:31.786Z,12.70
2023-08-28T01:23:15.722Z,12.30
2023-08-28T01:25:44.179Z,13.60
2023-08-28T01:28:12.123Z,16.20
2023-08-28T01:30:39.987Z,12.10
2023-08-28T01:33:08.084Z,9.60
2023-08-28T01:35:36.567Z,10.10
2023-08-28T01:38:32.349Z,11.90
2023-08-28T01:41:04.911Z,12.00
2023-08-28T01:43:38.545Z,14.80
2023-08-28T01:46:08.067Z,11.90
2023-08-28T01:48:36.910Z,9.80
2023-08-28T01:51:05.326Z,11.10
2023-08-28T01:53:33.310Z,10.20
2023-08-28T01:56:10.264Z,9.80
2023-08-28T01:58:43.585Z,13.70
2023-08-28T02:01:12.107Z,12.60
2023-08-28T02:03:40.634Z,11.80
2023-08-28T02:06:09.460Z,12.80
2023-08-28T02:08:37.931Z,11.00
2023-08-28T02:11:06.687Z,13.70
2023-08-28T02:13:34.773Z,9.70
2023-08-28T02:16:04.023Z,12.40
2023-08-28T02:18:32.054Z,11.00
2023-08-28T02:21:00.187Z,15.10
2023-08-28T02:23:29.879Z,14.70
2023-08-28T02:25:57.806Z,12.40
2023-08-28T02:28:26.598Z,14.00
2023-08-28T02:30:54.650Z,14.30
2023-08-28T02:33:23.175Z,14.50
2023-08-28T02:35:51.069Z,11.80
2023-08-28T02:38:20.115Z,15.00
2023-08-28T02:40:48.083Z,14.50
2023-08-28T02:43:15.959Z,11.60
2023-08-28T02:45:43.934Z,14.40
2023-08-28T02:48:12.031Z,13.10
2023-08-28T02:50:39.960Z,13.70
2023-08-28T02:53:07.903Z,14.90
2023-08-28T02:55:41.235Z,15.90
2023-08-28T02:58:10.685Z,14.90
2023-08-28T03:00:39.476Z,17.50
2023-08-28T03:03:07.846Z,15.60
2023-08-28T03:05:36.208Z,12.00
2023-08-28T03:08:05.203Z,13.30
2023-08-28T03:10:36.001Z,14.60
2023-08-28T03:13:04.918Z,13.00
2023-08-28T03:15:33.235Z,17.40
2023-08-28T03:18:01.213Z,15.80
2023-08-28T03:20:29.123Z,15.30
2023-08-28T03:22:57.082Z,12.70
2023-08-28T03:25:25.412Z,12.50
2023-08-28T03:27:53.925Z,13.40
2023-08-28T03:30:21.848Z,13.90
2023-08-28T03:32:49.874Z,12.90
2023-08-28T03:35:17.992Z,15.60
2023-08-28T03:37:45.954Z,17.20
2023-08-28T03:40:13.938Z,15.00
2023-08-28T03:42:41.813Z,15.40
2023-08-28T03:45:10.180Z,17.10
2023-08-28T03:47:38.201Z,15.40
2023-08-28T03:50:06.496Z,13.90
2023-08-28T03:52:34.314Z,14.50
2023-08-28T03:55:02.565Z,14.00
2023-08-28T03:57:30.831Z,17.00
2023-08-28T03:59:58.811Z,15.60
2023-08-28T04:02:26.682Z,15.80
2023-08-28T04:05:06.726Z,15.90
2023-08-28T04:07:36.350Z,16.00
2023-08-28T04:10:04.684Z,14.90
2023-08-28T04:12:33.772Z,16.50
2023-08-28T04:15:01.697Z,14.60
2023-08-28T04:17:29.726Z,13.60
2023-08-28T04:19:57.744Z,15.90
2023-08-28T04:22:25.639Z,14.00
2023-08-28T04:24:55.218Z,15.80
2023-08-28T04:27:23.091Z,16.10
2023-08-28T04:29:52.709Z,12.70
2023-08-28T04:32:22.405Z,19.70
2023-08-28T04:34:50.416Z,13.80
2023-08-28T04:37:18.424Z,13.40
2023-08-28T04:39:46.254Z,16.30
2023-08-28T04:42:16.011Z,17.20
2023-08-28T04:44:44.054Z,14.50
2023-08-28T04:47:13.862Z,14.40
2023-08-28T04:49:42.471Z,15.60
2023-08-28T04:52:10.423Z,14.60
2023-08-28T04:54:38.396Z,30.10
2023-08-28T04:57:06.444Z,18.10
2023-08-28T04:59:34.590Z,16.30
2023-08-28T05:02:02.558Z,15.80
2023-08-28T05:04:30.479Z,13.70
2023-08-28T05:06:58.473Z,13.90
2023-08-28T05:09:26.563Z,14.60
2023-08-28T05:11:54.494Z,13.20
2023-08-28T05:14:22.372Z,18.50
2023-08-28T05:16:50.422Z,13.80
2023-08-28T05:19:18.264Z,15.20
2023-08-28T05:21:46.129Z,16.20
2023-08-28T05:24:14.182Z,17.40
2023-08-28T05:26:42.034Z,12.50
2023-08-28T05:29:10.068Z,19.40
2023-08-28T05:31:38.065Z,19.00
2023-08-28T05:34:06.198Z,14.70
2023-08-28T05:36:34.175Z,18.40
2023-08-28T05:39:02.273Z,16.10
2023-08-28T05:41:30.355Z,16.00
2023-08-28T05:43:58.549Z,18.90
2023-08-28T05:46:26.579Z,15.50
2023-08-28T05:48:54.496Z,15.00
2023-08-28T05:51:22.508Z,13.40
2023-08-28T05:53:50.581Z,12.50
2023-08-28T05:56:18.653Z,16.10
2023-08-28T05:58:46.563Z,12.00
2023-08-28T06:01:14.523Z,12.50
2023-08-28T06:03:42.554Z,18.10
2023-08-28T06:06:13.169Z,14.50
2023-08-28T06:08:41.010Z,13.80
2023-08-28T06:11:09.080Z,19.90
2023-08-28T06:13:37.496Z,13.90
2023-08-28T06:16:05.977Z,16.20
2023-08-28T06:18:33.966Z,21.70
2023-08-28T06:21:01.999Z,15.20
2023-08-28T06:23:31.127Z,15.20
2023-08-28T06:25:59.127Z,14.30
2023-08-28T06:28:26.947Z,15.00
2023-08-28T06:30:54.995Z,20.40
2023-08-28T06:33:23.044Z,19.80
2023-08-28T06:35:51.105Z,16.10
2023-08-28T06:38:19.125Z,15.30
2023-08-28T06:40:58.542Z,16.90
2023-08-28T06:43:26.742Z,18.80
2023-08-28T06:45:54.728Z,18.20
2023-08-28T06:48:22.716Z,18.80
2023-08-28T06:50:52.591Z,15.70
2023-08-28T06:53:20.831Z,18.20
2023-08-28T06:55:48.857Z,18.90
2023-08-28T06:58:16.736Z,13.10
2023-08-28T07:00:44.646Z,15.40
2023-08-28T07:03:12.885Z,18.90
2023-08-28T07:05:41.637Z,15.30
2023-08-28T07:08:09.915Z,16.70
2023-08-28T07:10:37.948Z,17.60
2023-08-28T07:13:06.995Z,20.90
2023-08-28T07:15:34.950Z,17.90
2023-08-28T07:18:04.336Z,28.90
2023-08-28T07:20:32.981Z,20.20
2023-08-28T07:23:01.632Z,18.20
2023-08-28T07:25:29.914Z,18.60
2023-08-28T07:27:57.864Z,17.10
2023-08-28T07:30:25.868Z,18.70
2023-08-28T07:32:53.820Z,17.10
2023-08-28T07:35:21.752Z,17.90
2023-08-28T07:37:49.606Z,15.30
2023-08-28T07:40:17.574Z,19.20
2023-08-28T07:42:45.381Z,16.50
2023-08-28T07:45:13.135Z,16.60
2023-08-28T07:47:42.471Z,16.90
2023-08-28T07:50:12.959Z,16.30
2023-08-28T07:52:42.230Z,16.80
2023-08-28T07:55:10.662Z,16.30
2023-08-28T07:57:38.581Z,18.00
2023-08-28T08:00:07.670Z,14.90
2023-08-28T08:02:35.789Z,23.10
2023-08-28T08:05:05.348Z,17.40
2023-08-28T08:07:36.130Z,17.40
2023-08-28T08:10:04.446Z,15.50
2023-08-28T08:12:32.377Z,14.90
2023-08-28T08:15:00.395Z,13.90
2023-08-28T08:17:28.982Z,13.80
2023-08-28T08:19:56.982Z,16.00
2023-08-28T08:22:26.134Z,12.20
2023-08-28T08:24:54.102Z,11.90
2023-08-28T08:27:21.980Z,10.90
2023-08-28T08:29:50.187Z,12.10
2023-08-28T08:32:18.342Z,14.30
2023-08-28T08:34:46.507Z,11.90
2023-08-28T08:37:16.222Z,15.60
2023-08-28T08:39:44.097Z,16.50
2023-08-28T08:42:12.145Z,9.60
2023-08-28T08:44:41.034Z,11.50
2023-08-28T08:47:09.009Z,12.00
2023-08-28T08:49:42.189Z,13.70
2023-08-28T08:52:14.108Z,15.40
2023-08-28T08:54:43.201Z,12.90
2023-08-28T08:57:28.148Z,11.60
2023-08-28T08:59:56.618Z,13.10
2023-08-28T09:02:26.991Z,11.60
2023-08-28T09:04:55.755Z,13.50
2023-08-28T09:07:26.501Z,19.10
2023-08-28T09:09:55.202Z,13.60
2023-08-28T09:12:23.231Z,11.40
2023-08-28T09:14:51.233Z,12.20
2023-08-28T09:17:19.956Z,11.90
2023-08-28T09:19:48.928Z,12.80
2023-08-28T09:22:17.326Z,10.50
2023-08-28T09:24:45.411Z,10.90
2023-08-28T09:27:15.263Z,13.20
2023-08-28T09:29:43.276Z,10.50
2023-08-28T09:32:11.974Z,14.10
2023-08-28T09:34:42.769Z,9.30
2023-08-28T09:37:13.891Z,11.30
2023-08-28T09:39:42.609Z,9.20
2023-08-28T09:42:11.389Z,13.00
2023-08-28T09:44:39.794Z,9.90
2023-08-28T09:47:07.912Z,10.00
2023-08-28T09:49:44.298Z,12.80
2023-08-28T09:52:13.010Z,12.60
2023-08-28T09:54:44.121Z,12.20
2023-08-28T09:57:18.655Z,10.00
2023-08-28T09:59:46.602Z,8.10
2023-08-28T10:02:23.015Z,9.40
2023-08-28T10:04:53.891Z,8.80
2023-08-28T10:07:25.118Z,7.90
2023-08-28T10:09:57.273Z,9.40
2023-08-28T10:12:26.893Z,9.20
2023-08-28T10:14:56.189Z,11.70
2023-08-28T10:17:28.625Z,15.30
2023-08-28T10:19:59.606Z,10.00
2023-08-28T10:22:29.966Z,7.60
2023-08-28T10:24:59.415Z,9.50
2023-08-28T10:27:28.012Z,9.50
2023-08-28T10:29:56.264Z,11.50
2023-08-28T10:32:25.074Z,9.40
2023-08-28T10:34:53.904Z,10.80
2023-08-28T10:37:28.391Z,10.50
2023-08-28T10:40:02.565Z,11.60
2023-08-28T10:42:31.780Z,12.00
2023-08-28T10:45:02.308Z,9.60
2023-08-28T10:47:31.283Z,12.10
2023-08-28T10:49:59.408Z,11.50
2023-08-28T10:52:28.428Z,14.80
2023-08-28T10:55:00.293Z,15.60
2023-08-28T10:57:29.428Z,14.00
2023-08-28T11:00:02.147Z,9.90
2023-08-28T11:03:08.218Z,10.50
2023-08-28T11:05:39.995Z,11.20
2023-08-28T11:08:13.236Z,7.70
2023-08-28T11:10:45.745Z,10.50
2023-08-28T11:13:25.195Z,7.00
2023-08-28T11:16:04.575Z,11.30
2023-08-28T11:18:32.966Z,12.30
2023-08-28T11:21:07.513Z,12.00
2023-08-28T11:23:55.881Z,9.80
2023-08-28T11:26:23.897Z,8.70
2023-08-28T11:28:52.102Z,10.50
2023-08-28T11:31:21.070Z,11.00
2023-08-28T11:33:55.607Z,10.30
2023-08-28T11:36:23.630Z,9.30
2023-08-28T11:38:56.234Z,8.60
2023-08-28T11:41:24.489Z,9.10
2023-08-28T11:43:53.363Z,8.90
2023-08-28T11:46:25.925Z,8.50
2023-08-28T11:48:54.078Z,16.00
2023-08-28T11:51:26.217Z,12.20
2023-08-28T11:53:54.141Z,8.50
2023-08-28T11:56:22.041Z,12.00
2023-08-28T11:58:50.581Z,10.50
2023-08-28T12:01:18.946Z,10.80
2023-08-28T12:03:46.909Z,13.20
2023-08-28T12:06:18.924Z,14.30
2023-08-28T12:08:48.306Z,12.80
2023-08-28T12:11:16.658Z,11.50
2023-08-28T12:13:44.794Z,13.10
2023-08-28T12:16:19.216Z,10.70
2023-08-28T12:18:53.037Z,9.40
2023-08-28T12:21:35.394Z,12.00
2023-08-28T12:24:03.857Z,8.60
2023-08-28T12:26:31.800Z,9.80
2023-08-28T12:28:59.930Z,10.10
2023-08-28T12:31:35.376Z,9.70
2023-08-28T12:34:10.669Z,7.60
2023-08-28T12:36:40.425Z,8.10
2023-08-28T12:39:16.805Z,7.70
2023-08-28T12:41:54.598Z,10.20
2023-08-28T12:44:23.794Z,10.70
2023-08-28T12:46:52.227Z,9.90
2023-08-28T12:49:21.012Z,8.60
2023-08-28T12:51:51.466Z,7.40
2023-08-28T12:54:22.340Z,9.50
2023-08-28T12:56:51.208Z,7.70
2023-08-28T12:59:20.601Z,8.70
2023-08-28T13:01:49.180Z,9.00
2023-08-28T13:04:17.785Z,9.20
2023-08-28T13:06:45.845Z,7.40
2023-08-28T13:09:13.967Z,8.50
2023-08-28T13:11:42.148Z,10.00
2023-08-28T13:14:10.542Z,6.10
2023-08-28T13:16:38.696Z,7.60
2023-08-28T13:19:07.822Z,7.80
2023-08-28T13:21:35.723Z,8.50
2023-08-28T13:24:04.591Z,9.10
2023-08-28T13:26:33.034Z,8.10
2023-08-28T13:29:01.207Z,9.60
2023-08-28T13:31:30.613Z,10.70
2023-08-28T13:33:58.748Z,10.70
2023-08-28T13:36:27.469Z,10.10
2023-08-28T13:38:55.473Z,11.40
2023-08-28T13:41:24.329Z,10.00
2023-08-28T13:43:52.241Z,8.20
2023-08-28T13:46:20.229Z,8.60
2023-08-28T13:48:48.704Z,10.00
2023-08-28T13:51:16.675Z,8.40
2023-08-28T13:53:44.626Z,10.70
2023-08-28T13:56:13.667Z,8.80
2023-08-28T13:58:41.708Z,7.70
2023-08-28T14:01:10.116Z,7.50
2023-08-28T14:03:38.234Z,8.30
2023-08-28T14:06:06.659Z,10.10
2023-08-28T14:08:35.595Z,10.20
2023-08-28T14:11:07.864Z,8.80
2023-08-28T14:13:37.956Z,8.90
2023-08-28T14:16:06.513Z,9.50
2023-08-28T14:18:35.080Z,9.20
2023-08-28T14:21:05.294Z,9.90
2023-08-28T14:23:34.815Z,7.00
2023-08-28T14:26:04.315Z,9.40
2023-08-28T14:28:32.801Z,9.40
2023-08-28T14:31:01.113Z,9.60
2023-08-28T14:33:29.091Z,9.10
2023-08-28T14:35:57.010Z,10.70
2023-08-28T14:38:25.619Z,8.20
2023-08-28T14:40:54.718Z,9.50
2023-08-28T14:43:22.768Z,9.10
2023-08-28T14:45:53.239Z,7.70
2023-08-28T14:48:21.356Z,7.10
2023-08-28T14:50:49.751Z,7.30
2023-08-28T14:53:17.704Z,8.90
2023-08-28T14:55:51.568Z,9.10
2023-08-28T14:58:19.532Z,9.20
2023-08-28T15:00:51.289Z,11.40
2023-08-28T15:03:19.615Z,7.40
2023-08-28T15:05:47.988Z,6.30
2023-08-28T15:08:17.877Z,9.60
2023-08-28T15:10:47.550Z,7.20
2023-08-28T15:13:16.607Z,7.20
2023-08-28T15:15:50.812Z,7.20
2023-08-28T15:18:19.399Z,15.30
2023-08-28T15:20:48.111Z,6.60
2023-08-28T15:23:18.334Z,9.30
2023-08-28T15:25:46.793Z,8.40
2023-08-28T15:28:15.200Z,6.50
2023-08-28T15:30:43.248Z,7.40
2023-08-28T15:33:12.492Z,7.40
2023-08-28T15:35:40.505Z,9.90
2023-08-28T15:38:10.089Z,8.40
2023-08-28T15:40:38.072Z,7.40
2023-08-28T15:43:06.618Z,7.50
2023-08-28T15:45:35.027Z,6.90
2023-08-28T15:48:06.409Z,7.50
2023-08-28T15:50:34.885Z,7.40
2023-08-28T15:53:02.933Z,9.00
2023-08-28T15:55:33.569Z,7.30
2023-08-28T15:58:01.677Z,8.10
2023-08-28T16:00:29.614Z,7.30
2023-08-28T16:02:57.857Z,5.90
2023-08-28T16:05:26.602Z,8.30
2023-08-28T16:07:54.504Z,9.80
2023-08-28T16:10:22.451Z,9.80
2023-08-28T16:12:50.694Z,6.40
2023-08-28T16:15:18.838Z,4.50
2023-08-28T16:17:47.323Z,10.10
2023-08-28T16:20:15.803Z,6.00
2023-08-28T16:22:43.942Z,6.20
2023-08-28T16:25:11.887Z,8.30
2023-08-28T16:27:44.966Z,8.60
2023-08-28T16:30:13.848Z,8.50
2023-08-28T16:32:43.053Z,10.80
2023-08-28T16:35:12.522Z,8.80
2023-08-28T16:37:41.520Z,9.80
2023-08-28T16:40:10.829Z,9.00
2023-08-28T16:42:38.690Z,7.40
2023-08-28T16:45:07.438Z,9.50
2023-08-28T16:47:35.448Z,8.10
2023-08-28T16:50:04.506Z,11.20
2023-08-28T16:52:32.904Z,11.80
2023-08-28T16:55:00.916Z,19.50
2023-08-28T16:57:31.365Z,9.90
2023-08-28T17:00:00.124Z,13.20
2023-08-28T17:02:28.123Z,10.70
2023-08-28T17:04:56.111Z,11.90
2023-08-28T17:07:26.143Z,9.60
2023-08-28T17:09:54.102Z,9.40
2023-08-28T17:12:22.761Z,10.80
2023-08-28T17:14:51.005Z,9.10
2023-08-28T17:17:19.002Z,8.40
2023-08-28T17:19:46.887Z,7.70
2023-08-28T17:22:15.321Z,9.80
2023-08-28T17:24:43.240Z,10.70
2023-08-28T17:27:11.130Z,11.60
2023-08-28T17:29:39.096Z,9.40
2023-08-28T17:32:07.381Z,7.00
2023-08-28T17:34:35.303Z,8.20
2023-08-28T17:37:03.405Z,9.50
2023-08-28T17:39:31.424Z,9.60
2023-08-28T17:41:59.314Z,11.60
2023-08-28T17:44:28.078Z,8.60
2023-08-28T17:46:56.522Z,10.80
2023-08-28T17:49:24.597Z,11.30
2023-08-28T17:51:52.587Z,10.30
2023-08-28T17:54:20.658Z,10.80
2023-08-28T17:56:49.762Z,10.00
2023-08-28T17:59:17.707Z,12.50
2023-08-28T18:01:47.140Z,9.60
2023-08-28T18:04:17.487Z,10.90
2023-08-28T18:06:47.441Z,9.90
2023-08-28T18:09:15.852Z,8.80
2023-08-28T18:11:47.167Z,11.00
2023-08-28T18:14:15.375Z,11.00
2023-08-28T18:16:45.998Z,11.40
2023-08-28T18:19:13.896Z,8.30
2023-08-28T18:21:42.037Z,9.60
2023-08-28T18:24:10.118Z,9.40
2023-08-28T18:26:38.149Z,11.70
2023-08-28T18:29:06.098Z,11.20
2023-08-28T18:31:34.053Z,11.40
2023-08-28T18:34:02.058Z,10.60
2023-08-28T18:36:30.043Z,10.70
2023-08-28T18:38:58.118Z,9.20
2023-08-28T18:41:26.092Z,8.90
2023-08-28T18:43:54.257Z,8.50
2023-08-28T18:46:22.262Z,11.00
2023-08-28T18:48:50.244Z,8.40
2023-08-28T18:51:19.698Z,11.00
2023-08-28T18:53:47.714Z,12.10
2023-08-28T18:56:15.654Z,9.20
2023-08-28T18:58:44.073Z,8.70
2023-08-28T19:01:12.282Z,10.70
2023-08-28T19:03:40.913Z,9.40
2023-08-28T19:06:09.306Z,9.30
2023-08-28T19:08:37.660Z,10.70
2023-08-28T19:11:06.825Z,8.90
2023-08-28T19:13:34.893Z,8.30
2023-08-28T19:16:03.037Z,8.40
2023-08-28T19:18:31.129Z,7.60
2023-08-28T19:21:02.913Z,9.20
2023-08-28T19:23:31.993Z,9.60
2023-08-28T19:26:00.121Z,10.40
2023-08-28T19:28:28.428Z,14.60
2023-08-28T19:30:56.591Z,12.30
2023-08-28T19:33:24.630Z,15.10
2023-08-28T19:35:52.725Z,13.90
2023-08-28T19:38:20.718Z,13.00
2023-08-28T19:40:51.155Z,15.20
2023-08-28T19:43:19.176Z,13.90
2023-08-28T19:45:47.281Z,18.20
2023-08-28T19:48:15.476Z,13.00
2023-08-28T19:50:43.456Z,14.20
2023-08-28T19:53:13.087Z,12.90
2023-08-28T19:55:42.270Z,13.00
2023-08-28T19:58:10.428Z,11.40
2023-08-28T20:00:38.401Z,11.00
2023-08-28T20:03:06.439Z,12.10
2023-08-28T20:05:34.422Z,14.60
2023-08-28T20:08:02.779Z,11.10
2023-08-28T20:10:31.604Z,11.70
2023-08-28T20:12:59.641Z,12.50
2023-08-28T20:15:27.771Z,12.60
2023-08-28T20:17:55.911Z,9.80
2023-08-28T20:20:24.091Z,10.80
2023-08-28T20:22:52.103Z,8.40
2023-08-28T20:25:20.058Z,10.50
2023-08-28T20:27:48.004Z,9.30
2023-08-28T20:30:16.028Z,7.40
2023-08-28T20:32:44.021Z,8.10
2023-08-28T20:35:12.001Z,6.70
2023-08-28T20:37:40.469Z,8.90
2023-08-28T20:40:13.238Z,9.50
2023-08-28T20:42:42.835Z,6.70
2023-08-28T20:45:11.408Z,7.90
2023-08-28T20:47:39.698Z,8.30
2023-08-28T20:50:09.457Z,6.50
2023-08-28T20:52:39.065Z,7.90
2023-08-28T20:55:08.546Z,8.60
2023-08-28T20:57:36.793Z,8.30
2023-08-28T21:00:06.154Z,9.50
2023-08-28T21:02:34.347Z,9.40
2023-08-28T21:05:02.872Z,10.30
2023-08-28T21:07:30.688Z,10.30
2023-08-28T21:09:58.731Z,9.30
2023-08-28T21:12:26.659Z,10.20
2023-08-28T21:14:55.458Z,11.60
2023-08-28T21:17:23.457Z,12.40
2023-08-28T21:19:54.283Z,10.00
2023-08-28T21:22:24.964Z,12.00
2023-08-28T21:24:52.894Z,10.90
2023-08-28T21:27:20.934Z,10.70
2023-08-28T21:29:48.831Z,8.50
2023-08-28T21:32:16.762Z,12.20
2023-08-28T21:34:44.841Z,13.80
2023-08-28T21:37:12.928Z,8.50
2023-08-28T21:39:41.048Z,10.70
2023-08-28T21:42:08.994Z,8.10
2023-08-28T21:44:37.097Z,12.40
2023-08-28T21:47:06.329Z,10.90
2023-08-28T21:49:34.215Z,12.60
2023-08-28T21:52:02.065Z,10.30
2023-08-28T21:54:30.080Z,9.90
2023-08-28T21:56:58.037Z,12.30
2023-08-28T21:59:26.231Z,9.80
2023-08-28T22:01:54.083Z,9.60
2023-08-28T22:04:21.928Z,8.50
2023-08-28T22:06:51.601Z,11.80
2023-08-28T22:09:19.792Z,10.90
2023-08-28T22:11:47.595Z,10.40
2023-08-28T22:14:15.566Z,8.10
2023-08-28T22:16:43.663Z,12.60
2023-08-28T22:19:11.708Z,10.80
2023-08-28T22:21:39.784Z,9.40
2023-08-28T22:24:08.240Z,11.40
2023-08-28T22:26:36.205Z,8.80
2023-08-28T22:29:04.391Z,11.70
2023-08-28T22:31:32.309Z,8.50
2023-08-28T22:34:00.352Z,15.30
2023-08-28T22:36:28.196Z,9.90
2023-08-28T22:38:56.191Z,9.00
2023-08-28T22:41:24.295Z,9.30
2023-08-28T22:43:52.270Z,10.00
2023-08-28T22:46:20.265Z,7.90
2023-08-28T22:48:49.429Z,10.50
2023-08-28T22:51:17.361Z,8.50
2023-08-28T22:53:45.360Z,11.70
2023-08-28T22:56:13.285Z,10.30
2023-08-28T22:58:41.219Z,7.70
2023-08-28T23:01:09.546Z,10.40
2023-08-28T23:03:37.552Z,9.40
2023-08-28T23:06:06.686Z,9.40
2023-08-28T23:08:34.751Z,10.10
2023-08-28T23:11:03.278Z,11.50
2023-08-28T23:13:31.397Z,10.50
2023-08-28T23:15:59.443Z,11.00
2023-08-28T23:18:28.000Z,12.40
2023-08-28T23:20:59.221Z,9.60
2023-08-28T23:23:27.654Z,8.20
2023-08-28T23:25:55.670Z,11.70
2023-08-28T23:28:24.425Z,9.20
2023-08-28T23:30:52.377Z,7.90
2023-08-28T23:33:20.594Z,10.70
2023-08-28T23:35:48.596Z,9.20
2023-08-28T23:38:16.676Z,9.00
2023-08-28T23:40:45.002Z,8.60
2023-08-28T23:43:13.203Z,7.70
2023-08-28T23:45:41.974Z,9.60
2023-08-28T23:48:09.948Z,9.90
2023-08-28T23:50:38.183Z,10.10
2023-08-28T23:53:06.125Z,9.30
2023-08-28T23:55:34.151Z,11.10
2023-08-28T23:58:02.503Z,9.90
